createdAt,value
2019-01-25T00:01:42.949Z,-4.70
2019-01-25T00:04:11.723Z,-4.60
2019-01-25T00:06:40.733Z,-4.60
2019-01-25T00:09:10.237Z,-4.70
2019-01-25T00:11:40.561Z,-4.70
2019-01-25T00:14:09.365Z,-4.70
2019-01-25T00:16:38.343Z,-4.70
2019-01-25T00:19:07.439Z,-4.80
2019-01-25T00:21:36.327Z,-4.70
2019-01-25T00:24:05.737Z,-4.70
2019-01-25T00:26:34.623Z,-4.70
2019-01-25T00:29:05.158Z,-4.70
2019-01-25T00:31:33.921Z,-4.60
2019-01-25T00:34:02.717Z,-4.60
2019-01-25T00:36:31.621Z,-4.60
2019-01-25T00:39:00.525Z,-4.60
2019-01-25T00:41:29.297Z,-4.60
2019-01-25T00:46:19.499Z,-4.60
2019-01-25T00:48:48.261Z,-4.60
2019-01-25T00:51:18.716Z,-4.70
2019-01-25T00:53:50.459Z,-4.70
2019-01-25T00:56:21.117Z,-4.60
2019-01-25T00:58:50.303Z,-4.60
2019-01-25T01:01:20.832Z,-4.60
2019-01-25T01:03:49.600Z,-4.60
2019-01-25T01:06:18.383Z,-4.60
2019-01-25T01:08:52.855Z,-4.60
2019-01-25T01:11:24.670Z,-4.60
2019-01-25T01:13:53.682Z,-4.60
2019-01-25T01:16:25.639Z,-4.60
2019-01-25T01:18:56.176Z,-4.70
2019-01-25T01:21:25.060Z,-4.70
2019-01-25T01:23:53.948Z,-4.70
2019-01-25T01:26:22.846Z,-4.70
2019-01-25T01:28:52.145Z,-4.70
2019-01-25T01:31:22.032Z,-4.80
2019-01-25T01:33:50.953Z,-4.70
2019-01-25T01:36:19.760Z,-4.70
2019-01-25T01:38:49.958Z,-4.70
2019-01-25T01:41:18.744Z,-4.80
2019-01-25T01:43:47.636Z,-4.80
2019-01-25T01:46:16.526Z,-4.70
2019-01-25T01:48:45.419Z,-4.70
2019-01-25T01:51:14.515Z,-4.70
2019-01-25T01:53:43.484Z,-4.80
2019-01-25T01:56:13.318Z,-4.70
2019-01-25T01:58:42.003Z,-4.70
2019-01-25T02:01:11.276Z,-4.70
2019-01-25T02:03:40.102Z,-4.70
2019-01-25T02:06:08.858Z,-4.70
2019-01-25T02:08:37.874Z,-4.60
2019-01-25T02:11:06.763Z,-4.60
2019-01-25T02:13:35.654Z,-4.70
2019-01-25T02:16:04.452Z,-4.70
2019-01-25T02:18:35.278Z,-4.70
2019-01-25T02:21:04.167Z,-4.70
2019-01-25T02:23:33.057Z,-4.70
2019-01-25T02:26:06.455Z,-4.70
2019-01-25T02:28:41.880Z,-4.70
2019-01-25T02:31:10.790Z,-4.70
2019-01-25T02:33:53.298Z,-4.70
2019-01-25T02:36:25.260Z,-4.70
2019-01-25T02:39:00.598Z,-4.70
2019-01-25T02:41:29.507Z,-4.80
2019-01-25T02:43:59.715Z,-4.80
2019-01-25T02:46:28.607Z,-4.80
2019-01-25T02:48:58.473Z,-4.80
2019-01-25T02:51:27.289Z,-4.80
2019-01-25T02:53:56.276Z,-4.70
2019-01-25T02:56:25.191Z,-4.70
2019-01-25T02:58:58.059Z,-4.70
2019-01-25T03:01:26.874Z,-4.70
2019-01-25T03:03:55.856Z,-4.70
2019-01-25T03:06:24.646Z,-4.70
2019-01-25T03:08:54.907Z,-4.70
2019-01-25T03:11:23.862Z,-4.70
2019-01-25T03:13:52.757Z,-4.80
2019-01-25T03:16:21.620Z,-4.80
2019-01-25T03:18:50.417Z,-4.70
2019-01-25T03:21:19.224Z,-4.80
2019-01-25T03:23:48.113Z,-4.90
2019-01-25T03:26:17.412Z,-4.80
2019-01-25T03:28:46.094Z,-4.80
2019-01-25T03:31:14.986Z,-4.80
2019-01-25T03:33:43.586Z,-4.70
2019-01-25T03:36:12.436Z,-4.70
2019-01-25T03:38:42.276Z,-4.70
2019-01-25T03:41:14.032Z,-4.70
2019-01-25T03:43:43.111Z,-4.70
2019-01-25T03:46:13.841Z,-4.80
2019-01-25T03:48:43.060Z,-4.90
2019-01-25T03:51:11.804Z,-4.80
2019-01-25T03:53:40.549Z,-4.80
2019-01-25T03:56:09.317Z,-4.80
2019-01-25T03:58:38.120Z,-4.80
2019-01-25T04:01:07.389Z,-4.80
2019-01-25T04:03:36.297Z,-4.80
2019-01-25T04:06:05.543Z,-4.70
2019-01-25T04:08:34.367Z,-4.70
2019-01-25T04:11:04.147Z,-4.70
2019-01-25T04:13:33.496Z,-4.70
2019-01-25T04:16:02.269Z,-4.70
2019-01-25T04:18:31.151Z,-4.80
2019-01-25T04:21:00.148Z,-4.90
2019-01-25T04:23:29.057Z,-4.90
2019-01-25T04:25:57.952Z,-4.90
2019-01-25T04:28:26.728Z,-4.90
2019-01-25T04:31:04.101Z,-4.90
2019-01-25T04:33:27.485Z,-4.90
2019-01-25T04:35:56.379Z,-4.90
2019-01-25T04:38:25.089Z,-4.90
2019-01-25T04:40:54.157Z,-4.90
2019-01-25T04:43:23.293Z,-4.90
2019-01-25T04:45:59.578Z,-5.00
2019-01-25T04:48:28.417Z,-5.10
2019-01-25T04:50:57.194Z,-5.10
2019-01-25T04:53:26.296Z,-5.00
2019-01-25T04:55:55.081Z,-5.00
2019-01-25T04:58:23.846Z,-5.00
2019-01-25T05:01:08.761Z,-5.00
2019-01-25T05:03:52.882Z,-5.00
2019-01-25T05:06:21.771Z,-5.00
2019-01-25T05:08:57.264Z,-5.00
2019-01-25T05:11:27.756Z,-5.00
2019-01-25T05:13:56.613Z,-5.20
2019-01-25T05:16:28.291Z,-5.20
2019-01-25T05:18:57.311Z,-5.20
2019-01-25T05:21:26.279Z,-5.20
2019-01-25T05:23:55.166Z,-5.10
2019-01-25T05:26:24.161Z,-5.10
2019-01-25T05:28:53.054Z,-5.10
2019-01-25T05:31:21.816Z,-5.10
2019-01-25T05:33:52.118Z,-5.10
2019-01-25T05:36:21.156Z,-5.10
2019-01-25T05:38:49.973Z,-5.00
2019-01-25T05:41:18.951Z,-5.10
2019-01-25T05:43:48.632Z,-5.10
2019-01-25T05:46:17.434Z,-5.00
2019-01-25T05:48:48.878Z,-5.00
2019-01-25T05:51:17.775Z,-5.10
2019-01-25T05:53:49.535Z,-5.20
2019-01-25T05:56:18.325Z,-5.30
2019-01-25T05:58:47.110Z,-5.30
2019-01-25T06:01:16.002Z,-5.20
2019-01-25T06:03:45.896Z,-5.20
2019-01-25T06:06:15.014Z,-5.20
2019-01-25T06:08:44.305Z,-5.10
2019-01-25T06:11:13.303Z,-5.10
2019-01-25T06:13:42.171Z,-5.10
2019-01-25T06:16:11.292Z,-5.20
2019-01-25T06:18:40.131Z,-5.30
2019-01-25T06:21:08.957Z,-5.40
2019-01-25T06:23:38.661Z,-5.40
2019-01-25T06:26:09.460Z,-5.50
2019-01-25T06:28:38.507Z,-5.50
2019-01-25T06:31:07.529Z,-5.50
2019-01-25T06:33:38.849Z,-5.50
2019-01-25T06:36:13.351Z,-5.50
2019-01-25T06:38:44.903Z,-5.40
2019-01-25T06:41:13.919Z,-5.30
2019-01-25T06:43:43.011Z,-5.30
2019-01-25T06:46:12.299Z,-5.30
2019-01-25T06:48:41.105Z,-5.20
2019-01-25T06:51:11.529Z,-5.20
2019-01-25T06:53:40.316Z,-5.10
2019-01-25T06:56:09.180Z,-5.10
2019-01-25T06:58:43.814Z,-5.20
2019-01-25T07:01:14.463Z,-5.10
2019-01-25T07:03:43.214Z,-5.20
2019-01-25T07:06:12.014Z,-5.20
2019-01-25T07:08:41.008Z,-5.30
2019-01-25T07:11:09.820Z,-5.30
2019-01-25T07:13:40.337Z,-5.30
2019-01-25T07:16:10.220Z,-5.30
2019-01-25T07:18:38.926Z,-5.30
2019-01-25T07:21:07.944Z,-5.30
2019-01-25T07:23:36.836Z,-5.30
2019-01-25T07:26:05.606Z,-5.40
2019-01-25T07:28:42.196Z,-5.40
2019-01-25T07:31:10.971Z,-5.40
2019-01-25T07:33:39.871Z,-5.30
2019-01-25T07:36:08.644Z,-5.40
2019-01-25T07:38:37.529Z,-5.40
2019-01-25T07:41:06.364Z,-5.40
2019-01-25T07:43:35.649Z,-5.40
2019-01-25T07:46:06.992Z,-5.30
2019-01-25T07:48:35.857Z,-5.40
2019-01-25T07:51:05.203Z,-5.40
2019-01-25T07:53:34.900Z,-5.40
2019-01-25T07:56:03.778Z,-5.40
2019-01-25T07:58:33.372Z,-5.30
2019-01-25T08:01:02.388Z,-5.40
2019-01-25T08:03:31.280Z,-5.30
2019-01-25T08:06:02.866Z,-5.40
2019-01-25T08:08:34.185Z,-5.40
2019-01-25T08:11:09.714Z,-5.40
2019-01-25T08:13:38.712Z,-5.40
2019-01-25T08:16:07.539Z,-5.30
2019-01-25T08:18:39.135Z,-5.30
2019-01-25T08:21:08.035Z,-5.20
2019-01-25T08:23:37.943Z,-5.10
2019-01-25T08:26:06.843Z,-5.20
2019-01-25T08:28:36.274Z,-5.20
2019-01-25T08:31:05.576Z,-5.20
2019-01-25T08:33:34.736Z,-5.20
2019-01-25T08:36:03.658Z,-5.30
2019-01-25T08:38:35.252Z,-5.40
2019-01-25T08:41:05.092Z,-5.30
2019-01-25T08:43:34.307Z,-5.20
2019-01-25T08:46:03.443Z,-5.20
2019-01-25T08:48:32.812Z,-5.30
2019-01-25T08:51:03.529Z,-5.30
2019-01-25T08:53:32.838Z,-5.20
2019-01-25T08:56:02.213Z,-5.20
2019-01-25T08:58:32.669Z,-5.20
2019-01-25T09:01:03.530Z,-5.20
2019-01-25T09:03:32.789Z,-5.20
2019-01-25T09:06:01.798Z,-5.20
2019-01-25T09:08:31.486Z,-5.30
2019-01-25T09:11:00.367Z,-5.40
2019-01-25T09:13:29.387Z,-5.40
2019-01-25T09:15:59.689Z,-5.40
2019-01-25T09:18:30.532Z,-5.30
2019-01-25T09:20:59.342Z,-5.40
2019-01-25T09:23:28.228Z,-5.40
2019-01-25T09:26:01.097Z,-5.40
2019-01-25T09:28:29.294Z,-5.40
2019-01-25T09:30:58.278Z,-5.40
2019-01-25T09:33:27.512Z,-5.50
2019-01-25T09:35:56.266Z,-5.50
2019-01-25T09:38:25.582Z,-5.50
2019-01-25T09:40:54.700Z,-5.50
2019-01-25T09:43:23.656Z,-5.50
2019-01-25T09:45:55.414Z,-5.50
2019-01-25T09:48:24.514Z,-5.30
2019-01-25T09:50:54.831Z,-5.30
2019-01-25T09:53:24.232Z,-5.30
2019-01-25T09:55:54.862Z,-5.30
2019-01-25T09:58:23.536Z,-5.30
2019-01-25T10:01:01.554Z,-5.20
2019-01-25T10:03:31.500Z,-5.20
2019-01-25T10:06:00.683Z,-5.20
2019-01-25T10:08:32.833Z,-5.10
2019-01-25T10:11:02.266Z,-5.20
2019-01-25T10:13:35.055Z,-5.20
2019-01-25T10:16:01.660Z,-5.10
2019-01-25T10:18:30.547Z,-5.00
2019-01-25T10:21:00.973Z,-5.00
2019-01-25T10:23:30.977Z,-4.90
2019-01-25T10:26:03.306Z,-4.90
2019-01-25T10:28:32.152Z,-4.90
2019-01-25T10:31:00.948Z,-5.00
2019-01-25T10:33:35.795Z,-4.90
2019-01-25T10:36:00.547Z,-4.90
2019-01-25T10:38:29.457Z,-4.90
2019-01-25T10:40:58.231Z,-5.00
2019-01-25T10:43:27.118Z,-5.00
2019-01-25T10:45:57.625Z,-4.90
2019-01-25T10:48:26.440Z,-4.90
2019-01-25T10:50:55.528Z,-4.80
2019-01-25T10:53:27.759Z,-4.70
2019-01-25T10:55:57.909Z,-4.60
2019-01-25T10:58:26.836Z,-4.60
2019-01-25T11:00:57.949Z,-4.50
2019-01-25T11:03:26.676Z,-4.60
2019-01-25T11:05:55.654Z,-4.60
2019-01-25T11:08:24.622Z,-4.60
2019-01-25T11:10:53.519Z,-4.70
2019-01-25T11:13:22.403Z,-4.60
2019-01-25T11:15:51.190Z,-4.50
2019-01-25T11:18:20.215Z,-4.60
2019-01-25T11:20:49.342Z,-4.60
2019-01-25T11:23:18.259Z,-4.70
2019-01-25T11:25:47.288Z,-4.70
2019-01-25T11:28:15.949Z,-4.70
2019-01-25T11:30:45.784Z,-4.60
2019-01-25T11:33:20.109Z,-4.70
2019-01-25T11:35:46.562Z,-4.80
2019-01-25T11:38:19.013Z,-4.70
2019-01-25T11:40:58.432Z,-4.70
2019-01-25T11:43:33.490Z,-4.70
2019-01-25T11:46:05.902Z,-4.90
2019-01-25T11:48:36.394Z,-4.90
2019-01-25T11:51:11.067Z,-4.80
2019-01-25T11:53:38.800Z,-4.80
2019-01-25T11:56:08.892Z,-4.70
2019-01-25T11:58:41.244Z,-4.70
2019-01-25T12:01:20.837Z,-4.60
2019-01-25T12:03:43.925Z,-4.50
2019-01-25T12:06:12.858Z,-4.60
2019-01-25T12:08:41.630Z,-4.70
2019-01-25T12:11:12.674Z,-4.60
2019-01-25T12:13:41.554Z,-4.60
2019-01-25T12:16:10.866Z,-4.50
2019-01-25T12:18:41.132Z,-4.50
2019-01-25T12:21:11.100Z,-4.60
2019-01-25T12:23:40.306Z,-4.40
2019-01-25T12:26:09.166Z,-4.40
2019-01-25T12:28:41.456Z,-4.30
2019-01-25T12:31:11.389Z,-4.20
2019-01-25T12:33:40.249Z,-4.20
2019-01-25T12:36:09.075Z,-4.30
2019-01-25T12:38:37.963Z,-4.10
2019-01-25T12:41:07.456Z,-4.00
2019-01-25T12:43:36.349Z,-3.80
2019-01-25T12:46:09.541Z,-3.80
2019-01-25T12:48:39.986Z,-3.70
2019-01-25T12:51:12.260Z,-3.80
2019-01-25T12:53:41.634Z,-3.80
2019-01-25T12:56:10.475Z,-3.90
2019-01-25T12:58:42.089Z,-3.90
2019-01-25T13:01:10.987Z,-4.00
2019-01-25T13:03:42.486Z,-3.90
2019-01-25T13:06:11.230Z,-3.90
2019-01-25T13:08:43.362Z,-3.90
2019-01-25T13:11:12.425Z,-3.80
2019-01-25T13:13:43.112Z,-3.90
2019-01-25T13:16:19.478Z,-3.90
2019-01-25T13:18:51.010Z,-4.00
2019-01-25T13:21:20.013Z,-4.00
2019-01-25T13:23:51.613Z,-4.10
2019-01-25T13:26:24.464Z,-4.20
2019-01-25T13:28:53.309Z,-4.20
2019-01-25T13:31:25.930Z,-4.20
2019-01-25T13:33:56.977Z,-4.30
2019-01-25T13:36:31.818Z,-4.30
2019-01-25T13:39:06.323Z,-4.30
2019-01-25T13:41:36.844Z,-4.20
2019-01-25T13:44:08.710Z,-4.10
2019-01-25T13:46:39.020Z,-4.00
2019-01-25T13:49:07.820Z,-3.90
2019-01-25T13:51:38.872Z,-3.90
2019-01-25T13:54:07.828Z,-3.80
2019-01-25T13:56:36.830Z,-3.70
2019-01-25T13:59:10.856Z,-3.70
2019-01-25T14:01:42.435Z,-3.60
2019-01-25T14:04:21.348Z,-3.80
2019-01-25T14:06:54.759Z,-3.80
2019-01-25T14:09:26.511Z,-3.80
2019-01-25T14:11:56.407Z,-3.70
2019-01-25T14:14:32.287Z,-3.80
2019-01-25T14:17:01.673Z,-3.80
2019-01-25T14:19:33.844Z,-3.90
2019-01-25T14:22:06.393Z,-3.90
2019-01-25T14:24:38.895Z,-3.90
2019-01-25T14:27:07.984Z,-3.80
2019-01-25T14:29:43.372Z,-3.80
2019-01-25T14:32:12.841Z,-3.90
2019-01-25T14:34:42.178Z,-3.90
2019-01-25T14:37:15.333Z,-3.90
2019-01-25T14:39:48.101Z,-3.90
2019-01-25T14:42:19.119Z,-3.90
2019-01-25T14:44:47.774Z,-3.90
2019-01-25T14:47:22.916Z,-3.90
2019-01-25T14:49:52.267Z,-3.90
2019-01-25T14:52:22.075Z,-3.80
2019-01-25T14:54:50.835Z,-3.80
2019-01-25T14:57:22.447Z,-3.80
2019-01-25T14:59:51.413Z,-3.80
2019-01-25T15:02:20.403Z,-3.80
2019-01-25T15:04:49.778Z,-3.80
2019-01-25T15:07:18.675Z,-3.80
2019-01-25T15:09:50.500Z,-3.90
2019-01-25T15:12:19.428Z,-3.80
2019-01-25T15:14:48.340Z,-3.80
2019-01-25T15:20:34.565Z,-3.90
2019-01-25T15:23:05.824Z,-3.80
2019-01-25T15:25:34.779Z,-3.80
2019-01-25T15:28:05.862Z,-3.80
2019-01-25T15:30:41.176Z,-3.70
2019-01-25T15:33:10.048Z,-3.70
2019-01-25T15:35:39.174Z,-3.70
2019-01-25T15:38:08.367Z,-3.70
2019-01-25T15:40:40.256Z,-3.70
2019-01-25T15:43:12.825Z,-3.70
2019-01-25T15:45:44.671Z,-3.60
2019-01-25T15:48:13.796Z,-3.60
2019-01-25T15:50:51.859Z,-3.70
2019-01-25T15:53:21.776Z,-3.60
2019-01-25T15:55:53.806Z,-3.60
2019-01-25T15:58:23.841Z,-3.60
2019-01-25T16:00:59.054Z,-3.60
2019-01-25T16:03:28.335Z,-3.60
2019-01-25T16:05:59.707Z,-3.60
2019-01-25T16:08:28.204Z,-3.60
2019-01-25T16:10:58.550Z,-3.50
2019-01-25T16:13:28.950Z,-3.50
2019-01-25T16:16:00.638Z,-3.40
2019-01-25T16:18:29.946Z,-3.40
2019-01-25T16:21:04.855Z,-3.40
2019-01-25T16:23:36.839Z,-3.40
2019-01-25T16:26:07.482Z,-3.40
2019-01-25T16:28:36.461Z,-3.40
2019-01-25T16:31:06.665Z,-3.40
2019-01-25T16:33:35.896Z,-3.30
2019-01-25T16:36:06.800Z,-3.30
2019-01-25T16:38:38.442Z,-3.30
2019-01-25T16:41:09.815Z,-3.30
2019-01-25T16:43:40.462Z,-3.20
2019-01-25T16:46:12.780Z,-3.20
2019-01-25T16:48:41.501Z,-3.20
2019-01-25T16:51:14.856Z,-3.20
2019-01-25T16:53:45.647Z,-3.20
2019-01-25T16:56:20.762Z,-3.10
2019-01-25T16:58:56.778Z,-3.10
2019-01-25T17:01:27.262Z,-3.10
2019-01-25T17:03:56.334Z,-3.00
2019-01-25T17:06:32.637Z,-3.00
2019-01-25T17:09:05.607Z,-3.00
2019-01-25T17:11:34.527Z,-3.00
2019-01-25T17:14:11.970Z,-3.00
2019-01-25T17:16:40.878Z,-3.00
2019-01-25T17:19:09.650Z,-2.90
2019-01-25T17:21:40.403Z,-2.90
2019-01-25T17:24:09.584Z,-2.90
2019-01-25T17:26:46.948Z,-2.80
2019-01-25T17:29:21.522Z,-2.80
2019-01-25T17:31:55.262Z,-2.80
2019-01-25T17:34:27.784Z,-2.70
2019-01-25T17:36:56.496Z,-2.70
2019-01-25T17:39:25.270Z,-2.70
2019-01-25T17:41:54.254Z,-2.70
2019-01-25T17:44:23.054Z,-2.60
2019-01-25T17:46:55.852Z,-2.60
2019-01-25T17:49:25.694Z,-2.60
2019-01-25T17:51:57.394Z,-2.60
2019-01-25T17:54:26.285Z,-2.50
2019-01-25T17:56:57.841Z,-2.50
2019-01-25T17:59:26.727Z,-2.50
2019-01-25T18:02:02.790Z,-2.50
2019-01-25T18:04:33.601Z,-2.50
2019-01-25T18:07:05.574Z,-2.40
2019-01-25T18:09:36.127Z,-2.40
2019-01-25T18:12:05.015Z,-2.40
2019-01-25T18:14:37.173Z,-2.40
2019-01-25T18:17:09.129Z,-2.30
2019-01-25T18:19:38.130Z,-2.30
2019-01-25T18:22:08.457Z,-2.30
2019-01-25T18:24:38.879Z,-2.30
2019-01-25T18:27:07.977Z,-2.20
2019-01-25T18:29:39.735Z,-2.20
2019-01-25T18:32:14.766Z,-2.10
2019-01-25T18:34:46.058Z,-2.10
2019-01-25T18:37:15.229Z,-2.10
2019-01-25T18:39:44.205Z,-2.10
2019-01-25T18:42:14.310Z,-2.10
2019-01-25T18:44:44.728Z,-2.10
2019-01-25T18:47:14.462Z,-2.10
2019-01-25T18:49:43.534Z,-2.10
2019-01-25T18:52:14.639Z,-2.00
2019-01-25T18:54:43.468Z,-2.10
2019-01-25T18:57:12.311Z,-2.00
2019-01-25T18:59:42.290Z,-2.00
2019-01-25T19:02:13.128Z,-2.00
2019-01-25T19:04:43.081Z,-2.00
2019-01-25T19:07:14.815Z,-2.00
2019-01-25T19:09:44.308Z,-2.00
2019-01-25T19:12:17.143Z,-1.90
2019-01-25T19:14:46.962Z,-2.00
2019-01-25T19:17:16.307Z,-2.00
2019-01-25T19:19:47.207Z,-1.90
2019-01-25T19:22:18.792Z,-1.90
2019-01-25T19:24:47.786Z,-1.90
2019-01-25T19:27:25.282Z,-1.90
2019-01-25T19:29:59.227Z,-1.90
2019-01-25T19:32:28.387Z,-1.90
2019-01-25T19:35:02.148Z,-1.90
2019-01-25T19:37:35.212Z,-1.90
2019-01-25T19:40:06.888Z,-1.90
2019-01-25T19:42:39.619Z,-1.90
2019-01-25T19:45:11.947Z,-1.80
2019-01-25T19:47:46.957Z,-1.90
2019-01-25T19:50:18.143Z,-1.90
2019-01-25T19:52:50.128Z,-1.80
2019-01-25T19:55:26.278Z,-1.80
2019-01-25T19:58:00.175Z,-1.80
2019-01-25T20:00:34.903Z,-1.80
2019-01-25T20:03:07.702Z,-1.70
2019-01-25T20:05:37.993Z,-1.70
2019-01-25T20:08:08.544Z,-1.70
2019-01-25T20:10:37.554Z,-1.70
2019-01-25T20:13:07.586Z,-1.70
2019-01-25T20:15:41.801Z,-1.70
2019-01-25T20:18:11.811Z,-1.70
2019-01-25T20:20:42.113Z,-1.60
2019-01-25T20:23:12.554Z,-1.60
2019-01-25T20:25:46.569Z,-1.60
2019-01-25T20:28:15.460Z,-1.50
2019-01-25T20:30:49.852Z,-1.50
2019-01-25T20:33:24.095Z,-1.50
2019-01-25T20:35:53.285Z,-1.50
2019-01-25T20:38:25.863Z,-1.50
2019-01-25T20:40:54.758Z,-1.50
2019-01-25T20:43:23.650Z,-1.50
2019-01-25T20:45:53.568Z,-1.40
2019-01-25T20:48:22.859Z,-1.40
2019-01-25T20:51:15.701Z,-1.40
2019-01-25T20:53:46.967Z,-1.40
2019-01-25T20:56:16.654Z,-1.30
2019-01-25T20:59:06.343Z,-1.30
2019-01-25T21:01:35.233Z,-1.20
2019-01-25T21:04:04.021Z,-1.20
2019-01-25T21:06:34.963Z,-1.20
2019-01-25T21:09:08.159Z,-1.10
2019-01-25T21:11:37.367Z,-1.10
2019-01-25T21:14:11.262Z,-1.10
2019-01-25T21:16:41.895Z,-1.10
2019-01-25T21:19:11.505Z,-1.00
2019-01-25T21:21:41.751Z,-1.00
2019-01-25T21:24:10.615Z,-1.00
2019-01-25T21:26:40.949Z,-1.10
2019-01-25T21:29:13.247Z,-1.00
2019-01-25T21:31:43.866Z,-1.00
2019-01-25T21:34:12.712Z,-1.10
2019-01-25T21:36:43.860Z,-1.00
2019-01-25T21:39:23.048Z,-1.00
2019-01-25T21:41:53.330Z,-1.00
2019-01-25T21:44:23.288Z,-1.00
2019-01-25T21:46:52.442Z,-1.00
2019-01-25T21:49:42.196Z,-1.00
2019-01-25T21:52:13.164Z,-1.00
2019-01-25T21:54:42.179Z,-1.00
2019-01-25T21:57:11.404Z,-1.00
2019-01-25T21:59:40.341Z,-1.00
2019-01-25T22:02:09.441Z,-1.00
2019-01-25T22:04:42.017Z,-1.00
2019-01-25T22:07:11.020Z,-1.00
2019-01-25T22:09:41.442Z,-0.90
2019-01-25T22:12:10.463Z,-1.00
2019-01-25T22:14:39.216Z,-0.90
2019-01-25T22:17:08.109Z,-0.90
2019-01-25T22:19:39.057Z,-0.90
2019-01-25T22:22:11.224Z,-1.00
2019-01-25T22:24:40.426Z,-1.00
2019-01-25T22:27:09.813Z,-1.00
2019-01-25T22:29:40.948Z,-0.90
2019-01-25T22:32:12.907Z,-1.00
2019-01-25T22:34:41.994Z,-1.00
2019-01-25T22:37:11.113Z,-1.00
2019-01-25T22:39:41.558Z,-0.90
2019-01-25T22:42:11.831Z,-0.90
2019-01-25T22:44:42.303Z,-0.90
2019-01-25T22:47:11.395Z,-1.00
2019-01-25T22:49:41.099Z,-1.00
2019-01-25T22:52:16.908Z,-1.00
2019-01-25T22:54:45.641Z,-1.00
2019-01-25T22:57:14.424Z,-1.00
2019-01-25T22:59:44.546Z,-1.00
2019-01-25T23:02:14.665Z,-1.00
2019-01-25T23:04:49.811Z,-1.00
2019-01-25T23:07:19.807Z,-1.00
2019-01-25T23:09:50.038Z,-1.00
2019-01-25T23:12:20.270Z,-1.00
2019-01-25T23:14:51.304Z,-1.00
2019-01-25T23:17:20.594Z,-1.00
2019-01-25T23:19:49.813Z,-1.00
2019-01-25T23:22:20.498Z,-1.00
2019-01-25T23:24:53.005Z,-1.00
2019-01-25T23:27:23.941Z,-1.00
2019-01-25T23:29:52.809Z,-1.00
2019-01-25T23:32:25.207Z,-1.00
2019-01-25T23:34:55.937Z,-1.00
2019-01-25T23:37:26.470Z,-1.00
2019-01-25T23:39:56.324Z,-0.90
2019-01-25T23:42:26.378Z,-1.00
2019-01-25T23:44:55.440Z,-1.00
2019-01-25T23:47:25.807Z,-1.00
2019-01-25T23:50:00.714Z,-1.00
2019-01-25T23:52:30.648Z,-1.00
2019-01-25T23:54:59.554Z,-1.00
2019-01-25T23:57:35.818Z,-0.90
